createdAt,value
2018-09-25T00:00:14.349Z,6.93
2018-09-25T00:02:48.253Z,5.40
2018-09-25T00:05:22.163Z,4.40
2018-09-25T00:07:55.995Z,4.07
2018-09-25T00:10:29.946Z,7.50
2018-09-25T00:13:03.670Z,7.73
2018-09-25T00:15:37.503Z,5.10
2018-09-25T00:18:11.362Z,5.90
2018-09-25T00:20:45.048Z,4.17
2018-09-25T00:23:18.703Z,5.03
2018-09-25T00:25:52.452Z,4.43
2018-09-25T00:28:26.173Z,7.97
2018-09-25T00:31:00.017Z,6.07
2018-09-25T00:33:33.777Z,8.03
2018-09-25T00:36:07.570Z,3.73
2018-09-25T00:38:41.278Z,4.93
2018-09-25T00:41:15.078Z,4.80
2018-09-25T00:43:48.831Z,8.77
2018-09-25T00:46:22.766Z,7.83
2018-09-25T00:48:56.562Z,8.73
2018-09-25T00:51:30.317Z,6.43
2018-09-25T00:54:04.052Z,6.83
2018-09-25T00:56:37.787Z,11.27
2018-09-25T00:59:11.574Z,5.97
2018-09-25T01:01:45.308Z,6.87
2018-09-25T01:04:19.104Z,7.20
2018-09-25T01:06:52.898Z,5.33
2018-09-25T01:09:26.726Z,4.80
2018-09-25T01:12:00.534Z,5.00
2018-09-25T01:14:34.396Z,3.70
2018-09-25T01:17:08.225Z,5.57
2018-09-25T01:19:41.919Z,7.30
2018-09-25T01:22:15.863Z,7.53
2018-09-25T01:24:49.745Z,6.47
2018-09-25T01:27:23.622Z,7.27
2018-09-25T01:29:57.354Z,5.70
2018-09-25T01:32:31.219Z,3.00
2018-09-25T01:35:05.246Z,7.37
2018-09-25T01:37:38.919Z,5.23
2018-09-25T01:40:12.744Z,4.73
2018-09-25T01:42:46.390Z,6.30
2018-09-25T01:45:20.073Z,3.83
2018-09-25T01:47:53.814Z,5.70
2018-09-25T01:50:27.577Z,3.73
2018-09-25T01:53:01.408Z,5.50
2018-09-25T01:55:35.098Z,6.30
2018-09-25T01:58:08.987Z,5.50
2018-09-25T02:00:42.772Z,5.53
2018-09-25T02:03:16.538Z,4.63
2018-09-25T02:05:50.424Z,6.03
2018-09-25T02:08:24.027Z,4.23
2018-09-25T02:10:57.742Z,8.10
2018-09-25T02:13:31.560Z,4.60
2018-09-25T02:16:05.494Z,7.33
2018-09-25T02:18:39.314Z,5.33
2018-09-25T02:21:13.169Z,6.17
2018-09-25T02:23:47.014Z,3.83
2018-09-25T02:26:20.713Z,6.13
2018-09-25T02:28:54.530Z,3.93
2018-09-25T02:31:28.407Z,5.53
2018-09-25T02:34:02.084Z,3.73
2018-09-25T02:36:35.888Z,4.53
2018-09-25T02:39:12.492Z,5.43
2018-09-25T02:41:46.260Z,8.10
2018-09-25T02:44:20.174Z,3.83
2018-09-25T02:46:54.002Z,6.67
2018-09-25T02:49:27.650Z,5.87
2018-09-25T02:52:01.288Z,5.13
2018-09-25T02:54:34.967Z,4.87
2018-09-25T02:57:08.910Z,4.93
2018-09-25T02:59:42.571Z,4.97
2018-09-25T03:02:16.310Z,4.53
2018-09-25T03:04:50.050Z,6.40
2018-09-25T03:07:23.849Z,4.80
2018-09-25T03:09:57.652Z,8.40
2018-09-25T03:12:31.428Z,5.97
2018-09-25T03:15:05.371Z,5.10
2018-09-25T03:17:39.223Z,3.57
2018-09-25T03:20:13.007Z,10.53
2018-09-25T03:22:46.679Z,5.80
2018-09-25T03:25:20.606Z,4.90
2018-09-25T03:27:54.429Z,4.83
2018-09-25T03:30:28.136Z,5.93
2018-09-25T03:33:01.958Z,8.43
2018-09-25T03:35:35.766Z,4.23
2018-09-25T03:38:09.643Z,4.17
2018-09-25T03:40:43.404Z,6.53
2018-09-25T03:43:17.378Z,5.80
2018-09-25T03:45:51.017Z,5.50
2018-09-25T03:48:24.782Z,4.13
2018-09-25T03:50:58.578Z,6.27
2018-09-25T03:53:32.297Z,4.50
2018-09-25T03:56:05.992Z,7.27
2018-09-25T03:58:39.695Z,6.43
2018-09-25T04:01:13.538Z,4.80
2018-09-25T04:03:47.463Z,5.93
2018-09-25T04:06:21.483Z,5.27
2018-09-25T04:08:55.292Z,6.20
2018-09-25T04:11:29.142Z,5.30
2018-09-25T04:14:02.833Z,4.53
2018-09-25T04:16:36.704Z,4.97
2018-09-25T04:19:10.398Z,3.80
2018-09-25T04:21:44.042Z,6.40
2018-09-25T04:24:17.988Z,3.47
2018-09-25T04:26:51.913Z,3.70
2018-09-25T04:29:25.751Z,3.80
2018-09-25T04:31:59.651Z,4.17
2018-09-25T04:34:33.481Z,7.03
2018-09-25T04:37:07.215Z,5.13
2018-09-25T04:39:40.910Z,4.57
2018-09-25T04:42:14.550Z,7.60
2018-09-25T04:44:48.529Z,4.03
2018-09-25T04:47:22.474Z,4.47
2018-09-25T04:49:56.381Z,4.53
2018-09-25T04:52:30.117Z,3.30
2018-09-25T04:55:04.085Z,7.17
2018-09-25T04:57:37.753Z,5.20
2018-09-25T05:00:11.597Z,4.10
2018-09-25T05:02:45.311Z,4.10
2018-09-25T05:05:19.012Z,3.77
2018-09-25T05:07:52.685Z,7.23
2018-09-25T05:10:26.449Z,5.70
2018-09-25T05:13:00.472Z,4.20
2018-09-25T05:15:34.191Z,5.17
2018-09-25T05:18:08.105Z,6.47
2018-09-25T05:20:41.732Z,5.60
2018-09-25T05:23:15.684Z,6.53
2018-09-25T05:25:49.490Z,4.77
2018-09-25T05:28:23.396Z,7.03
2018-09-25T05:30:57.135Z,6.17
2018-09-25T05:33:30.927Z,5.67
2018-09-25T05:36:04.689Z,4.73
2018-09-25T05:38:38.615Z,5.40
2018-09-25T05:41:12.388Z,4.33
2018-09-25T05:43:46.074Z,5.70
2018-09-25T05:46:19.984Z,6.00
2018-09-25T05:48:53.925Z,7.77
2018-09-25T05:51:27.716Z,6.03
2018-09-25T05:54:01.545Z,6.97
2018-09-25T05:56:35.221Z,4.90
2018-09-25T05:59:09.017Z,6.57
2018-09-25T06:01:42.848Z,7.43
2018-09-25T06:04:16.632Z,5.97
2018-09-25T06:06:50.256Z,5.33
2018-09-25T06:09:24.048Z,8.27
2018-09-25T06:11:57.798Z,5.00
2018-09-25T06:14:31.570Z,5.47
2018-09-25T06:17:05.471Z,4.67
2018-09-25T06:19:39.352Z,7.17
2018-09-25T06:22:13.266Z,4.93
2018-09-25T06:24:47.096Z,6.60
2018-09-25T06:27:20.858Z,13.80
2018-09-25T06:29:54.758Z,4.67
2018-09-25T06:32:28.497Z,7.00
2018-09-25T06:35:02.704Z,3.73
2018-09-25T06:37:36.589Z,4.90
2018-09-25T06:40:10.327Z,4.57
2018-09-25T06:42:44.106Z,5.47
2018-09-25T06:45:17.980Z,5.00
2018-09-25T06:47:51.861Z,3.87
2018-09-25T06:50:25.668Z,5.20
2018-09-25T06:52:59.484Z,5.57
2018-09-25T06:55:33.343Z,7.07
2018-09-25T06:58:07.211Z,5.87
2018-09-25T07:00:41.021Z,6.90
2018-09-25T07:03:14.931Z,4.00
2018-09-25T07:05:48.551Z,4.97
2018-09-25T07:08:22.383Z,7.17
2018-09-25T07:10:56.217Z,7.00
2018-09-25T07:13:29.847Z,5.90
2018-09-25T07:16:03.669Z,6.13
2018-09-25T07:18:37.492Z,6.03
2018-09-25T07:21:11.432Z,6.23
2018-09-25T07:23:45.145Z,4.07
2018-09-25T07:26:19.011Z,6.00
2018-09-25T07:28:52.764Z,5.87
2018-09-25T07:31:26.456Z,8.40
2018-09-25T07:34:00.183Z,5.27
2018-09-25T07:36:34.100Z,5.57
2018-09-25T07:39:08.134Z,6.47
2018-09-25T07:41:42.048Z,9.27
2018-09-25T07:44:15.996Z,9.70
2018-09-25T07:46:49.678Z,5.20
2018-09-25T07:49:23.451Z,8.67
2018-09-25T07:51:57.258Z,8.03
2018-09-25T07:54:30.842Z,6.43
2018-09-25T07:57:04.657Z,8.70
2018-09-25T07:59:38.367Z,8.57
2018-09-25T08:02:12.186Z,5.63
2018-09-25T08:04:46.019Z,8.60
2018-09-25T08:07:19.720Z,6.63
2018-09-25T08:09:53.491Z,11.83
2018-09-25T08:12:27.257Z,5.87
2018-09-25T08:15:00.812Z,8.30
2018-09-25T08:17:34.584Z,6.33
2018-09-25T08:20:08.440Z,5.57
2018-09-25T08:22:42.261Z,7.13
2018-09-25T08:25:16.739Z,5.60
2018-09-25T08:27:50.450Z,5.23
2018-09-25T08:30:24.288Z,5.80
2018-09-25T08:32:57.954Z,5.30
2018-09-25T08:35:31.813Z,7.72
2018-09-25T08:38:05.594Z,5.03
2018-09-25T08:40:39.365Z,6.40
2018-09-25T08:43:13.180Z,4.33
2018-09-25T08:45:47.034Z,5.97
2018-09-25T08:48:20.793Z,9.08
2018-09-25T08:50:54.459Z,3.22
2018-09-25T08:53:28.317Z,5.72
2018-09-25T08:56:02.030Z,6.22
2018-09-25T08:58:35.723Z,6.65
2018-09-25T09:01:09.421Z,5.33
2018-09-25T09:03:43.197Z,5.62
2018-09-25T09:06:16.979Z,4.70
2018-09-25T09:08:50.749Z,6.92
2018-09-25T09:11:24.552Z,9.15
2018-09-25T09:13:58.205Z,7.50
2018-09-25T09:16:32.078Z,5.22
2018-09-25T09:19:05.830Z,6.85
2018-09-25T09:21:39.635Z,6.75
2018-09-25T09:24:13.444Z,7.53
2018-09-25T09:26:47.424Z,4.58
2018-09-25T09:29:21.222Z,6.28
2018-09-25T09:31:55.027Z,5.45
2018-09-25T09:34:28.934Z,5.22
2018-09-25T09:37:02.646Z,5.37
2018-09-25T09:39:36.337Z,5.47
2018-09-25T09:42:10.116Z,5.28
2018-09-25T09:44:43.772Z,5.80
2018-09-25T09:47:17.469Z,7.67
2018-09-25T09:49:51.131Z,6.67
2018-09-25T09:52:24.843Z,7.05
2018-09-25T09:54:58.592Z,6.58
2018-09-25T09:57:32.428Z,3.77
2018-09-25T10:00:06.146Z,5.45
2018-09-25T10:02:39.812Z,5.25
2018-09-25T10:05:13.672Z,5.50
2018-09-25T10:07:47.520Z,6.85
2018-09-25T10:10:21.145Z,7.65
2018-09-25T10:12:54.872Z,4.33
2018-09-25T10:15:28.513Z,3.35
2018-09-25T10:18:02.078Z,4.53
2018-09-25T10:20:35.791Z,4.08
2018-09-25T10:23:09.564Z,6.60
2018-09-25T10:25:43.340Z,3.55
2018-09-25T10:28:17.117Z,8.78
2018-09-25T10:30:50.894Z,6.65
2018-09-25T10:33:24.705Z,4.37
2018-09-25T10:35:58.425Z,5.87
2018-09-25T10:38:32.115Z,3.33
2018-09-25T10:41:05.888Z,5.85
2018-09-25T10:43:39.596Z,4.45
2018-09-25T10:46:13.429Z,3.37
2018-09-25T10:48:47.153Z,4.40
2018-09-25T10:51:20.927Z,4.50
2018-09-25T10:53:54.765Z,3.30
2018-09-25T10:56:28.547Z,5.08
2018-09-25T10:59:02.383Z,4.05
2018-09-25T11:01:36.073Z,3.98
2018-09-25T11:04:09.765Z,4.17
2018-09-25T11:06:43.396Z,4.40
2018-09-25T11:09:17.238Z,5.03
2018-09-25T11:11:51.019Z,4.42
2018-09-25T11:14:24.863Z,6.12
2018-09-25T11:16:58.661Z,2.12
2018-09-25T11:19:32.290Z,4.35
2018-09-25T11:22:06.020Z,4.92
2018-09-25T11:24:39.846Z,3.05
2018-09-25T11:27:13.672Z,3.67
2018-09-25T11:29:47.454Z,4.00
2018-09-25T11:32:21.380Z,4.25
2018-09-25T11:34:55.084Z,7.72
2018-09-25T11:37:28.721Z,4.58
2018-09-25T11:40:02.424Z,4.75
2018-09-25T11:42:36.098Z,4.20
2018-09-25T11:45:09.920Z,5.65
2018-09-25T11:47:43.876Z,3.58
2018-09-25T11:50:17.566Z,3.85
2018-09-25T11:52:51.222Z,4.60
2018-09-25T11:55:24.904Z,4.20
2018-09-25T11:57:58.578Z,5.78
2018-09-25T12:00:33.469Z,3.58
2018-09-25T12:03:07.110Z,8.20
2018-09-25T12:05:40.878Z,6.87
2018-09-25T12:08:14.644Z,3.90
2018-09-25T12:10:48.458Z,4.55
2018-09-25T12:13:22.352Z,5.78
2018-09-25T12:15:56.269Z,5.65
2018-09-25T12:18:30.130Z,4.90
2018-09-25T12:21:03.936Z,5.62
2018-09-25T12:23:37.754Z,4.50
2018-09-25T12:26:11.766Z,4.47
2018-09-25T12:28:45.588Z,4.55
2018-09-25T12:31:19.616Z,5.62
2018-09-25T12:33:53.414Z,4.47
2018-09-25T12:36:27.070Z,8.33
2018-09-25T12:39:00.848Z,5.28
2018-09-25T12:41:34.610Z,5.83
2018-09-25T12:44:08.332Z,5.90
2018-09-25T12:46:42.092Z,3.17
2018-09-25T12:49:16.132Z,7.33
2018-09-25T12:51:49.800Z,4.10
2018-09-25T12:54:23.520Z,5.85
2018-09-25T12:56:57.272Z,5.05
2018-09-25T12:59:31.168Z,4.67
2018-09-25T13:02:04.851Z,4.78
2018-09-25T13:04:38.511Z,3.85
2018-09-25T13:07:12.284Z,5.78
2018-09-25T13:09:46.085Z,3.15
2018-09-25T13:12:19.810Z,3.60
2018-09-25T13:14:53.517Z,6.30
2018-09-25T13:17:27.570Z,4.60
2018-09-25T13:20:08.280Z,6.45
2018-09-25T13:22:42.077Z,3.37
2018-09-25T13:25:15.756Z,4.37
2018-09-25T13:27:49.515Z,3.85
2018-09-25T13:30:23.425Z,6.33
2018-09-25T13:32:57.140Z,3.80
2018-09-25T13:35:30.960Z,5.47
2018-09-25T13:38:04.633Z,4.65
2018-09-25T13:40:38.317Z,3.12
2018-09-25T13:43:12.153Z,3.10
2018-09-25T13:45:45.959Z,4.60
2018-09-25T13:48:19.592Z,4.53
2018-09-25T13:50:53.251Z,5.08
2018-09-25T13:53:26.935Z,4.85
2018-09-25T13:56:00.683Z,5.12
2018-09-25T13:58:34.463Z,3.85
2018-09-25T14:01:08.207Z,3.65
2018-09-25T14:03:42.030Z,4.20
2018-09-25T14:06:15.835Z,5.45
2018-09-25T14:08:49.603Z,3.75
2018-09-25T14:11:23.324Z,5.15
2018-09-25T14:13:57.186Z,4.65
2018-09-25T14:16:30.927Z,2.15
2018-09-25T14:19:04.553Z,3.22
2018-09-25T14:21:38.227Z,5.42
2018-09-25T14:24:11.948Z,2.98
2018-09-25T14:26:45.790Z,7.25
2018-09-25T14:29:19.564Z,6.20
2018-09-25T14:31:53.278Z,5.25
2018-09-25T14:34:27.030Z,4.03
2018-09-25T14:37:00.816Z,3.92
2018-09-25T14:39:34.540Z,4.80
2018-09-25T14:42:08.318Z,5.60
2018-09-25T14:44:42.016Z,3.17
2018-09-25T14:47:15.824Z,3.30
2018-09-25T14:49:49.670Z,4.53
2018-09-25T14:52:23.551Z,5.33
2018-09-25T14:54:57.412Z,6.42
2018-09-25T14:57:31.172Z,5.22
2018-09-25T15:00:04.950Z,2.70
2018-09-25T15:02:38.705Z,4.60
2018-09-25T15:05:12.637Z,7.20
2018-09-25T15:07:46.336Z,5.17
2018-09-25T15:10:20.131Z,6.95
2018-09-25T15:12:53.770Z,7.67
2018-09-25T15:15:27.501Z,4.77
2018-09-25T15:18:01.229Z,7.30
2018-09-25T15:20:35.207Z,7.73
2018-09-25T15:23:09.036Z,5.87
2018-09-25T15:25:42.883Z,3.70
2018-09-25T15:28:16.647Z,5.97
2018-09-25T15:30:50.393Z,4.30
2018-09-25T15:33:24.242Z,4.03
2018-09-25T15:35:57.946Z,3.63
2018-09-25T15:38:31.917Z,6.97
2018-09-25T15:41:05.838Z,2.17
2018-09-25T15:43:39.656Z,4.30
2018-09-25T15:46:13.633Z,5.67
2018-09-25T15:48:47.532Z,2.90
2018-09-25T15:51:21.298Z,5.10
2018-09-25T15:53:55.046Z,3.13
2018-09-25T15:56:28.709Z,3.53
2018-09-25T15:59:02.408Z,4.53
2018-09-25T16:01:36.058Z,4.13
2018-09-25T16:04:09.775Z,4.00
2018-09-25T16:06:43.467Z,4.77
2018-09-25T16:09:17.063Z,7.30
2018-09-25T16:11:50.742Z,4.63
2018-09-25T16:14:24.589Z,5.93
2018-09-25T16:16:58.341Z,3.87
2018-09-25T16:19:32.207Z,9.53
2018-09-25T16:22:05.908Z,7.67
2018-09-25T16:24:39.649Z,5.97
2018-09-25T16:27:13.581Z,5.33
2018-09-25T16:29:47.281Z,7.07
2018-09-25T16:32:20.886Z,4.07
2018-09-25T16:34:54.625Z,4.27
2018-09-25T16:37:28.391Z,4.53
2018-09-25T16:40:01.991Z,6.30
2018-09-25T16:42:35.883Z,5.03
2018-09-25T16:45:09.868Z,7.63
2018-09-25T16:47:43.724Z,5.50
2018-09-25T16:50:17.725Z,6.23
2018-09-25T16:52:51.676Z,5.37
2018-09-25T16:55:25.473Z,2.47
2018-09-25T16:57:59.293Z,7.43
2018-09-25T17:00:33.040Z,4.83
2018-09-25T17:03:06.688Z,6.00
2018-09-25T17:05:40.366Z,3.40
2018-09-25T17:08:14.098Z,5.60
2018-09-25T17:10:47.953Z,5.60
2018-09-25T17:13:21.817Z,6.97
2018-09-25T17:15:55.627Z,5.43
2018-09-25T17:18:29.420Z,7.37
2018-09-25T17:21:03.277Z,4.27
2018-09-25T17:23:37.089Z,3.57
2018-09-25T17:26:11.084Z,3.67
2018-09-25T17:28:44.948Z,8.13
2018-09-25T17:31:18.730Z,7.00
2018-09-25T17:33:52.370Z,7.27
2018-09-25T17:36:26.222Z,4.77
2018-09-25T17:38:59.978Z,3.17
2018-09-25T17:41:33.785Z,5.50
2018-09-25T17:44:07.515Z,3.73
2018-09-25T17:46:41.270Z,5.13
2018-09-25T17:49:15.088Z,3.57
2018-09-25T17:51:48.876Z,7.13
2018-09-25T17:54:22.622Z,7.37
2018-09-25T17:56:56.351Z,5.10
2018-09-25T17:59:30.041Z,9.43
2018-09-25T18:02:03.864Z,25.77
2018-09-25T18:04:37.727Z,29.87
2018-09-25T18:07:11.613Z,28.97
2018-09-25T18:09:45.371Z,22.90
2018-09-25T18:12:19.240Z,20.43
2018-09-25T18:14:53.017Z,11.87
2018-09-25T18:17:26.754Z,7.97
2018-09-25T18:20:00.560Z,5.67
2018-09-25T18:22:34.228Z,5.90
2018-09-25T18:25:08.090Z,9.87
2018-09-25T18:27:41.801Z,5.97
2018-09-25T18:30:15.664Z,4.60
2018-09-25T18:32:49.507Z,4.43
2018-09-25T18:35:23.195Z,4.27
2018-09-25T18:37:56.973Z,4.70
2018-09-25T18:40:30.745Z,10.27
2018-09-25T18:43:04.411Z,2.33
2018-09-25T18:45:38.221Z,8.23
2018-09-25T18:48:12.018Z,3.87
2018-09-25T18:50:45.845Z,7.00
2018-09-25T18:53:19.647Z,4.57
2018-09-25T18:55:53.465Z,5.40
2018-09-25T18:58:27.218Z,5.97
2018-09-25T19:01:01.136Z,7.13
2018-09-25T19:03:35.033Z,6.40
2018-09-25T19:06:08.837Z,7.37
2018-09-25T19:08:42.509Z,7.70
2018-09-25T19:11:16.213Z,10.47
2018-09-25T19:13:50.057Z,13.53
2018-09-25T19:16:23.911Z,15.03
2018-09-25T19:18:57.735Z,16.47
2018-09-25T19:21:31.574Z,14.67
2018-09-25T19:24:05.425Z,12.27
2018-09-25T19:26:39.260Z,12.03
2018-09-25T19:29:13.048Z,8.60
2018-09-25T19:31:46.803Z,7.23
2018-09-25T19:34:20.513Z,7.30
2018-09-25T19:36:54.368Z,6.00
2018-09-25T19:39:28.125Z,4.23
2018-09-25T19:42:01.887Z,6.30
2018-09-25T19:44:35.826Z,19.17
2018-09-25T19:47:09.535Z,7.90
2018-09-25T19:49:43.142Z,6.70
2018-09-25T19:52:17.082Z,7.73
2018-09-25T19:54:50.868Z,9.93
2018-09-25T19:57:24.604Z,8.57
2018-09-25T19:59:58.256Z,9.50
2018-09-25T20:02:32.165Z,7.50
2018-09-25T20:05:06.091Z,6.37
2018-09-25T20:07:40.422Z,5.90
2018-09-25T20:10:14.972Z,6.10
2018-09-25T20:12:49.657Z,7.27
2018-09-25T20:15:24.151Z,4.33
2018-09-25T20:17:58.330Z,6.47
2018-09-25T20:20:31.961Z,6.60
2018-09-25T20:23:05.812Z,8.33
2018-09-25T20:25:39.636Z,7.53
2018-09-25T20:28:13.432Z,5.50
2018-09-25T20:30:47.192Z,6.83
2018-09-25T20:33:21.012Z,5.70
2018-09-25T20:35:54.811Z,3.77
2018-09-25T20:38:28.780Z,11.23
2018-09-25T20:41:02.572Z,9.73
2018-09-25T20:43:36.450Z,10.97
2018-09-25T20:46:10.195Z,12.70
2018-09-25T20:48:43.918Z,7.83
2018-09-25T20:51:17.590Z,5.83
2018-09-25T20:53:51.451Z,6.37
2018-09-25T20:56:25.301Z,6.03
2018-09-25T20:58:59.186Z,6.80
2018-09-25T21:01:32.943Z,9.00
2018-09-25T21:04:06.680Z,7.27
2018-09-25T21:06:40.486Z,6.30
2018-09-25T21:09:15.051Z,7.57
2018-09-25T21:11:48.770Z,4.70
2018-09-25T21:14:22.467Z,5.97
2018-09-25T21:16:56.147Z,8.07
2018-09-25T21:19:29.830Z,6.87
2018-09-25T21:22:03.499Z,5.87
2018-09-25T21:24:37.214Z,8.23
2018-09-25T21:27:11.450Z,11.33
2018-09-25T21:29:45.199Z,7.03
2018-09-25T21:32:19.028Z,6.47
2018-09-25T21:34:52.691Z,4.07
2018-09-25T21:37:26.427Z,8.13
2018-09-25T21:40:00.303Z,7.27
2018-09-25T21:42:34.117Z,6.03
2018-09-25T21:45:07.944Z,5.93
2018-09-25T21:47:41.781Z,6.13
2018-09-25T21:50:15.602Z,5.37
2018-09-25T21:52:49.280Z,7.13
2018-09-25T21:55:23.067Z,15.23
2018-09-25T21:57:56.987Z,5.83
2018-09-25T22:00:30.601Z,8.87
2018-09-25T22:03:04.353Z,7.60
2018-09-25T22:05:38.125Z,6.77
2018-09-25T22:08:11.923Z,6.10
2018-09-25T22:10:45.639Z,6.60
2018-09-25T22:13:19.405Z,9.57
2018-09-25T22:15:53.168Z,8.80
2018-09-25T22:18:26.902Z,7.00
2018-09-25T22:21:00.510Z,7.97
2018-09-25T22:23:34.334Z,9.87
2018-09-25T22:26:08.114Z,9.40
2018-09-25T22:28:41.736Z,10.10
2018-09-25T22:31:15.490Z,7.50
2018-09-25T22:33:49.589Z,7.03
2018-09-25T22:36:23.541Z,10.27
2018-09-25T22:38:57.302Z,6.87
2018-09-25T22:41:31.106Z,6.37
2018-09-25T22:44:05.038Z,7.70
2018-09-25T22:46:38.757Z,9.13
2018-09-25T22:49:12.693Z,6.47
2018-09-25T22:51:46.509Z,8.60
2018-09-25T22:54:20.340Z,13.30
2018-09-25T22:56:54.204Z,6.87
2018-09-25T22:59:27.874Z,9.13
2018-09-25T23:02:01.680Z,8.80
2018-09-25T23:04:35.386Z,7.93
2018-09-25T23:07:09.214Z,6.93
2018-09-25T23:09:43.078Z,10.40
2018-09-25T23:12:16.821Z,8.27
2018-09-25T23:14:50.519Z,11.07
2018-09-25T23:17:24.348Z,8.77
2018-09-25T23:19:58.048Z,7.20
2018-09-25T23:22:31.849Z,11.20
2018-09-25T23:25:05.764Z,9.03
2018-09-25T23:27:39.628Z,10.40
2018-09-25T23:30:13.400Z,7.77
2018-09-25T23:32:47.230Z,12.23
2018-09-25T23:35:21.074Z,9.87
2018-09-25T23:37:54.803Z,12.13
2018-09-25T23:40:27.452Z,10.50
2018-09-25T23:43:01.337Z,14.90
2018-09-25T23:45:40.009Z,9.57
2018-09-25T23:49:13.540Z,11.07
2018-09-25T23:51:49.847Z,10.27
2018-09-25T23:56:30.074Z,12.97
2018-09-25T23:59:02.692Z,10.97
